createdAt,value
2017-11-22T00:00:34.176Z,0
2017-11-22T00:01:34.200Z,0
2017-11-22T00:02:33.930Z,0
2017-11-22T00:03:34.222Z,0
2017-11-22T00:04:33.700Z,0
2017-11-22T00:05:33.976Z,0
2017-11-22T00:06:34.258Z,0
2017-11-22T00:07:34.273Z,0
2017-11-22T00:08:34.289Z,0
2017-11-22T00:09:34.305Z,0
2017-11-22T00:10:34.044Z,0
2017-11-22T00:11:33.799Z,0
2017-11-22T00:12:34.077Z,0
2017-11-22T00:13:34.359Z,0
2017-11-22T00:14:34.106Z,0
2017-11-22T00:15:34.123Z,0
2017-11-22T00:16:34.406Z,0
2017-11-22T00:17:34.417Z,0
2017-11-22T00:18:34.158Z,0
2017-11-22T00:19:33.909Z,0
2017-11-22T00:20:34.463Z,0
2017-11-22T00:21:34.199Z,0
2017-11-22T00:22:34.490Z,0
2017-11-22T00:23:33.971Z,0
2017-11-22T00:24:33.976Z,0
2017-11-22T00:25:34.558Z,0
2017-11-22T00:26:34.552Z,0
2017-11-22T00:27:34.068Z,0
2017-11-22T00:28:34.582Z,0
2017-11-22T00:29:34.604Z,0
2017-11-22T00:30:34.601Z,0
2017-11-22T00:31:34.349Z,0
2017-11-22T00:32:34.630Z,0
2017-11-22T00:33:34.649Z,0
2017-11-22T00:34:34.661Z,0
2017-11-22T00:35:34.673Z,0
2017-11-22T00:36:34.433Z,0
2017-11-22T00:37:34.438Z,0
2017-11-22T00:38:34.452Z,0
2017-11-22T00:39:34.482Z,0
2017-11-22T00:40:34.204Z,0
2017-11-22T00:41:34.503Z,0
2017-11-22T00:42:34.506Z,0
2017-11-22T00:43:34.799Z,0
2017-11-22T00:44:34.811Z,0
2017-11-22T00:45:34.548Z,0
2017-11-22T00:46:34.569Z,0
2017-11-22T00:47:34.881Z,0
2017-11-22T00:48:34.860Z,0
2017-11-22T00:49:34.615Z,0
2017-11-22T00:50:34.356Z,0
2017-11-22T00:51:34.365Z,0
2017-11-22T00:52:34.949Z,0
2017-11-22T00:53:34.663Z,0
2017-11-22T00:54:34.970Z,0
2017-11-22T00:55:34.972Z,0
2017-11-22T00:56:34.710Z,0
2017-11-22T00:57:34.719Z,0
2017-11-22T00:58:35.022Z,0
2017-11-22T00:59:34.754Z,0
2017-11-22T01:00:34.772Z,0
2017-11-22T01:01:35.052Z,0
2017-11-22T01:02:35.063Z,0
2017-11-22T01:03:34.809Z,0
2017-11-22T01:04:35.090Z,0
2017-11-22T01:05:35.113Z,0
2017-11-22T01:06:35.134Z,0
2017-11-22T01:07:35.136Z,0
2017-11-22T01:08:34.879Z,0
2017-11-22T01:09:35.227Z,0
2017-11-22T01:10:34.636Z,0
2017-11-22T01:11:34.923Z,0
2017-11-22T01:12:35.207Z,0
2017-11-22T01:13:35.230Z,0
2017-11-22T01:14:35.234Z,0
2017-11-22T01:15:34.977Z,0
2017-11-22T01:16:35.271Z,0
2017-11-22T01:17:35.284Z,0
2017-11-22T01:18:35.297Z,0
2017-11-22T01:19:35.042Z,0
2017-11-22T01:20:35.320Z,0
2017-11-22T01:21:35.334Z,0
2017-11-22T01:22:35.076Z,0
2017-11-22T01:23:35.379Z,0
2017-11-22T01:24:35.109Z,0
2017-11-22T01:25:35.409Z,0
2017-11-22T01:26:35.134Z,0
2017-11-22T01:27:35.432Z,0
2017-11-22T01:28:35.434Z,0
2017-11-22T01:29:35.453Z,0
2017-11-22T01:30:34.929Z,0
2017-11-22T01:31:35.204Z,0
2017-11-22T01:32:35.221Z,0
2017-11-22T01:33:35.239Z,0
2017-11-22T01:34:35.245Z,0
2017-11-22T01:35:35.535Z,0
2017-11-22T01:36:35.563Z,0
2017-11-22T01:37:35.295Z,0
2017-11-22T01:38:35.584Z,0
2017-11-22T01:39:35.608Z,0
2017-11-22T01:40:35.619Z,0
2017-11-22T01:41:35.359Z,0
2017-11-22T01:42:35.637Z,0
2017-11-22T01:43:35.384Z,0
2017-11-22T01:44:35.446Z,0
2017-11-22T01:45:35.695Z,0
2017-11-22T01:46:35.148Z,0
2017-11-22T01:47:35.451Z,0
2017-11-22T01:48:35.460Z,0
2017-11-22T01:49:35.741Z,0
2017-11-22T01:50:35.755Z,0
2017-11-22T01:51:35.764Z,0
2017-11-22T01:52:35.493Z,0
2017-11-22T01:53:35.507Z,0
2017-11-22T01:54:35.526Z,0
2017-11-22T01:55:35.812Z,0
2017-11-22T01:56:35.815Z,0
2017-11-22T01:57:35.575Z,0
2017-11-22T01:58:35.865Z,0
2017-11-22T01:59:35.323Z,0
2017-11-22T02:00:35.615Z,0
2017-11-22T02:01:35.627Z,0
2017-11-22T02:02:35.918Z,0
2017-11-22T02:03:35.675Z,0
2017-11-22T02:04:35.946Z,0
2017-11-22T02:05:35.955Z,0
2017-11-22T02:06:35.968Z,0
2017-11-22T02:07:35.443Z,0
2017-11-22T02:08:35.730Z,0
2017-11-22T02:09:36.009Z,0
2017-11-22T02:10:36.086Z,0
2017-11-22T02:11:36.040Z,0
2017-11-22T02:12:36.061Z,0
2017-11-22T02:13:35.790Z,0
2017-11-22T02:14:35.808Z,0
2017-11-22T02:15:35.826Z,0
2017-11-22T02:16:36.115Z,0
2017-11-22T02:17:35.904Z,0
2017-11-22T02:18:35.900Z,0
2017-11-22T02:19:35.893Z,0
2017-11-22T02:20:36.161Z,0
2017-11-22T02:21:35.909Z,0
2017-11-22T02:22:35.940Z,0
2017-11-22T02:23:36.222Z,0
2017-11-22T02:24:36.235Z,0
2017-11-22T02:25:35.969Z,0
2017-11-22T02:26:36.257Z,0
2017-11-22T02:27:35.997Z,0
2017-11-22T02:28:35.736Z,0
2017-11-22T02:29:36.033Z,0
2017-11-22T02:30:36.315Z,0
2017-11-22T02:31:36.067Z,0
2017-11-22T02:32:36.068Z,0
2017-11-22T02:33:36.094Z,0
2017-11-22T02:34:36.388Z,0
2017-11-22T02:35:36.113Z,0
2017-11-22T02:36:36.405Z,0
2017-11-22T02:37:36.137Z,0
2017-11-22T02:38:36.433Z,0
2017-11-22T02:39:36.190Z,0
2017-11-22T02:40:36.472Z,0
2017-11-22T02:41:36.195Z,0
2017-11-22T02:42:36.222Z,0
2017-11-22T02:43:36.511Z,0
2017-11-22T02:44:36.246Z,0
2017-11-22T02:45:36.523Z,0
2017-11-22T02:46:36.001Z,0
2017-11-22T02:47:36.582Z,0
2017-11-22T02:48:36.572Z,0
2017-11-22T02:49:36.315Z,0
2017-11-22T02:50:36.060Z,0
2017-11-22T02:51:36.617Z,0
2017-11-22T02:52:36.559Z,0
2017-11-22T02:53:36.640Z,0
2017-11-22T02:54:36.686Z,0
2017-11-22T02:55:36.682Z,0
2017-11-22T02:56:36.463Z,0
2017-11-22T02:57:36.430Z,0
2017-11-22T02:58:36.712Z,0
2017-11-22T02:59:36.741Z,0
2017-11-22T03:00:36.764Z,0
2017-11-22T03:01:36.487Z,0
2017-11-22T03:02:36.495Z,0
2017-11-22T03:03:36.795Z,0
2017-11-22T03:04:36.796Z,0
2017-11-22T03:05:36.544Z,0
2017-11-22T03:06:36.549Z,0
2017-11-22T03:07:36.838Z,0
2017-11-22T03:08:36.859Z,0
2017-11-22T03:09:36.604Z,0
2017-11-22T03:10:36.884Z,0
2017-11-22T03:11:37.353Z,0
2017-11-22T03:12:36.651Z,0
2017-11-22T03:13:36.646Z,0
2017-11-22T03:14:36.937Z,0
2017-11-22T03:15:36.683Z,0
2017-11-22T03:16:36.963Z,0
2017-11-22T03:17:36.986Z,0
2017-11-22T03:18:36.998Z,0
2017-11-22T03:19:36.472Z,0
2017-11-22T03:20:36.748Z,0
2017-11-22T03:21:36.762Z,0
2017-11-22T03:22:36.830Z,0
2017-11-22T03:23:36.792Z,0
2017-11-22T03:24:36.812Z,0
2017-11-22T03:25:37.100Z,0
2017-11-22T03:26:36.835Z,0
2017-11-22T03:27:36.603Z,0
2017-11-22T03:28:37.240Z,0
2017-11-22T03:29:37.115Z,0
2017-11-22T03:30:36.493Z,0
2017-11-22T03:31:37.349Z,0
2017-11-22T03:32:36.964Z,0
2017-11-22T03:33:37.215Z,0
2017-11-22T03:34:37.257Z,0
2017-11-22T03:35:37.242Z,0
2017-11-22T03:36:37.258Z,0
2017-11-22T03:37:37.018Z,0
2017-11-22T03:38:37.018Z,0
2017-11-22T03:39:37.140Z,0
2017-11-22T03:40:37.522Z,0
2017-11-22T03:41:37.064Z,0
2017-11-22T03:42:37.443Z,0
2017-11-22T03:43:37.493Z,0
2017-11-22T03:44:37.205Z,0
2017-11-22T03:45:36.837Z,0
2017-11-22T03:46:37.397Z,0
2017-11-22T03:47:37.405Z,0
2017-11-22T03:48:37.429Z,0
2017-11-22T03:49:37.435Z,0
2017-11-22T03:50:37.595Z,0
2017-11-22T03:51:37.353Z,0
2017-11-22T03:52:37.210Z,0
2017-11-22T03:53:36.957Z,0
2017-11-22T03:54:37.545Z,0
2017-11-22T03:55:37.524Z,0
2017-11-22T03:56:36.996Z,0
2017-11-22T03:57:37.321Z,0
2017-11-22T03:58:37.021Z,0
2017-11-22T03:59:37.585Z,0
2017-11-22T04:00:37.594Z,0
2017-11-22T04:01:37.603Z,0
2017-11-22T04:02:37.636Z,0
2017-11-22T04:03:37.649Z,0
2017-11-22T04:04:37.380Z,0
2017-11-22T04:05:37.830Z,0
2017-11-22T04:06:37.684Z,0
2017-11-22T04:07:37.725Z,0
2017-11-22T04:08:37.706Z,0
2017-11-22T04:09:37.447Z,0
2017-11-22T04:10:37.778Z,0
2017-11-22T04:11:37.764Z,0
2017-11-22T04:12:37.808Z,0
2017-11-22T04:13:37.246Z,0
2017-11-22T04:14:37.811Z,0
2017-11-22T04:15:37.540Z,0
2017-11-22T04:16:37.830Z,0
2017-11-22T04:17:38.288Z,0
2017-11-22T04:18:37.863Z,0
2017-11-22T04:19:37.901Z,0
2017-11-22T04:20:37.646Z,0
2017-11-22T04:21:37.628Z,0
2017-11-22T04:22:37.650Z,0
2017-11-22T04:23:37.711Z,0
2017-11-22T04:24:37.799Z,0
2017-11-22T04:25:37.689Z,0
2017-11-22T04:26:37.705Z,0
2017-11-22T04:27:37.979Z,0
2017-11-22T04:28:37.732Z,0
2017-11-22T04:29:37.737Z,0
2017-11-22T04:30:38.032Z,0
2017-11-22T04:31:37.762Z,0
2017-11-22T04:32:37.561Z,0
2017-11-22T04:33:38.069Z,0
2017-11-22T04:34:37.829Z,0
2017-11-22T04:35:38.128Z,0
2017-11-22T04:36:37.832Z,0
2017-11-22T04:37:38.354Z,0
2017-11-22T04:38:38.135Z,0
2017-11-22T04:39:37.878Z,0
2017-11-22T04:40:38.339Z,0
2017-11-22T04:41:38.184Z,0
2017-11-22T04:42:37.935Z,0
2017-11-22T04:43:38.214Z,0
2017-11-22T04:44:38.229Z,0
2017-11-22T04:45:38.235Z,0
2017-11-22T04:46:38.263Z,0
2017-11-22T04:47:37.725Z,0
2017-11-22T04:48:38.284Z,0
2017-11-22T04:49:38.022Z,0
2017-11-22T04:50:38.318Z,0
2017-11-22T04:51:38.321Z,0
2017-11-22T04:52:38.069Z,0
2017-11-22T04:53:38.346Z,0
2017-11-22T04:54:38.101Z,0
2017-11-22T04:55:38.375Z,0
2017-11-22T04:56:38.410Z,0
2017-11-22T04:57:38.412Z,0
2017-11-22T04:58:38.147Z,0
2017-11-22T04:59:37.893Z,0
2017-11-22T05:00:38.191Z,0
2017-11-22T05:01:38.481Z,0
2017-11-22T05:02:38.203Z,0
2017-11-22T05:03:38.500Z,0
2017-11-22T05:04:38.503Z,0
2017-11-22T05:05:38.516Z,0
2017-11-22T05:06:38.546Z,0
2017-11-22T05:07:38.273Z,0
2017-11-22T05:08:38.294Z,0
2017-11-22T05:09:38.303Z,0
2017-11-22T05:10:38.689Z,0
2017-11-22T05:11:39.022Z,0
2017-11-22T05:12:38.351Z,0
2017-11-22T05:13:38.379Z,0
2017-11-22T05:14:38.658Z,0
2017-11-22T05:15:38.397Z,0
2017-11-22T05:16:38.668Z,0
2017-11-22T05:17:38.695Z,0
2017-11-22T05:18:38.703Z,0
2017-11-22T05:19:38.714Z,0
2017-11-22T05:20:38.735Z,0
2017-11-22T05:21:38.744Z,0
2017-11-22T05:22:38.775Z,0
2017-11-22T05:23:38.499Z,0
2017-11-22T05:24:38.515Z,0
2017-11-22T05:25:38.543Z,0
2017-11-22T05:26:38.547Z,0
2017-11-22T05:27:38.843Z,0
2017-11-22T05:28:38.844Z,0
2017-11-22T05:29:38.854Z,0
2017-11-22T05:30:38.606Z,0
2017-11-22T05:31:38.614Z,0
2017-11-22T05:32:38.900Z,0
2017-11-22T05:33:38.376Z,0
2017-11-22T05:34:38.923Z,0
2017-11-22T05:35:38.676Z,0
2017-11-22T05:36:38.954Z,0
2017-11-22T05:37:38.977Z,0
2017-11-22T05:38:38.719Z,0
2017-11-22T05:39:39.004Z,0
2017-11-22T05:40:38.909Z,0
2017-11-22T05:41:39.061Z,0
2017-11-22T05:42:38.772Z,0
2017-11-22T05:43:38.801Z,0
2017-11-22T05:44:39.070Z,0
2017-11-22T05:45:39.085Z,0
2017-11-22T05:46:38.838Z,0
2017-11-22T05:47:39.137Z,0
2017-11-22T05:48:38.877Z,0
2017-11-22T05:49:38.881Z,0
2017-11-22T05:50:38.896Z,0
2017-11-22T05:51:38.630Z,0
2017-11-22T05:52:39.183Z,0
2017-11-22T05:53:39.226Z,0
2017-11-22T05:54:39.208Z,0
2017-11-22T05:55:39.245Z,0
2017-11-22T05:56:39.264Z,0
2017-11-22T05:57:38.988Z,0
2017-11-22T05:58:39.272Z,0
2017-11-22T05:59:39.289Z,0
2017-11-22T06:00:39.028Z,0
2017-11-22T06:01:39.319Z,0
2017-11-22T06:02:38.515Z,0
2017-11-22T06:03:38.533Z,0
2017-11-22T06:04:38.824Z,0
2017-11-22T06:05:39.101Z,0
2017-11-22T06:06:39.387Z,0
2017-11-22T06:07:39.401Z,0
2017-11-22T06:08:39.410Z,0
2017-11-22T06:09:39.431Z,0
2017-11-22T06:10:39.454Z,0
2017-11-22T06:11:39.464Z,0
2017-11-22T06:12:39.204Z,0
2017-11-22T06:13:39.483Z,0
2017-11-22T06:14:39.529Z,0
2017-11-22T06:15:39.248Z,0
2017-11-22T06:16:39.552Z,0
2017-11-22T06:17:39.268Z,0
2017-11-22T06:18:39.555Z,0
2017-11-22T06:19:39.569Z,0
2017-11-22T06:20:39.312Z,4
2017-11-22T06:21:39.324Z,4
2017-11-22T06:22:39.618Z,4
2017-11-22T06:23:39.634Z,0
2017-11-22T06:24:39.654Z,4
2017-11-22T06:25:39.685Z,4
2017-11-22T06:26:39.391Z,4
2017-11-22T06:27:39.405Z,4
2017-11-22T06:28:39.425Z,4
2017-11-22T06:29:39.712Z,4
2017-11-22T06:30:39.725Z,8
2017-11-22T06:31:39.195Z,4
2017-11-22T06:32:39.759Z,8
2017-11-22T06:33:39.485Z,8
2017-11-22T06:34:39.781Z,8
2017-11-22T06:35:39.790Z,12
2017-11-22T06:36:39.547Z,8
2017-11-22T06:37:39.556Z,8
2017-11-22T06:38:39.566Z,12
2017-11-22T06:39:39.862Z,16
2017-11-22T06:40:39.872Z,12
2017-11-22T06:41:39.885Z,16
2017-11-22T06:42:39.346Z,16
2017-11-22T06:43:39.633Z,16
2017-11-22T06:44:39.646Z,20
2017-11-22T06:45:39.664Z,24
2017-11-22T06:46:39.959Z,20
2017-11-22T06:47:39.697Z,24
2017-11-22T06:48:39.432Z,24
2017-11-22T06:49:40.012Z,28
2017-11-22T06:50:40.002Z,32
2017-11-22T06:51:39.760Z,36
2017-11-22T06:52:40.063Z,40
2017-11-22T06:53:40.043Z,44
2017-11-22T06:54:39.786Z,48
2017-11-22T06:55:39.806Z,52
2017-11-22T06:56:39.835Z,56
2017-11-22T06:57:40.116Z,60
2017-11-22T06:58:39.849Z,60
2017-11-22T06:59:40.138Z,64
2017-11-22T07:00:40.139Z,72
2017-11-22T07:01:40.162Z,72
2017-11-22T07:02:39.917Z,76
2017-11-22T07:03:40.189Z,84
2017-11-22T07:04:40.206Z,88
2017-11-22T07:05:40.223Z,92
2017-11-22T07:06:40.233Z,100
2017-11-22T07:07:40.249Z,104
2017-11-22T07:08:40.259Z,104
2017-11-22T07:09:40.270Z,108
2017-11-22T07:10:40.284Z,108
2017-11-22T07:11:40.296Z,112
2017-11-22T07:12:40.313Z,108
2017-11-22T07:13:40.384Z,112
2017-11-22T07:14:39.531Z,128
2017-11-22T07:15:39.818Z,132
2017-11-22T07:16:40.373Z,140
2017-11-22T07:17:40.382Z,144
2017-11-22T07:18:39.856Z,156
2017-11-22T07:19:40.157Z,168
2017-11-22T07:20:40.436Z,172
2017-11-22T07:21:40.449Z,176
2017-11-22T07:22:40.452Z,172
2017-11-22T07:23:40.471Z,160
2017-11-22T07:24:40.483Z,164
2017-11-22T07:25:40.229Z,176
2017-11-22T07:26:40.515Z,172
2017-11-22T07:27:40.257Z,180
2017-11-22T07:28:40.593Z,196
2017-11-22T07:29:40.552Z,200
2017-11-22T07:30:40.582Z,208
2017-11-22T07:31:40.313Z,220
2017-11-22T07:32:40.595Z,240
2017-11-22T07:33:40.330Z,240
2017-11-22T07:34:40.356Z,232
2017-11-22T07:35:40.370Z,232
2017-11-22T07:36:40.393Z,228
2017-11-22T07:37:40.406Z,228
2017-11-22T07:38:40.409Z,252
2017-11-22T07:39:40.426Z,284
2017-11-22T07:40:40.163Z,292
2017-11-22T07:41:40.492Z,280
2017-11-22T07:42:40.466Z,276
2017-11-22T07:43:40.479Z,268
2017-11-22T07:44:40.508Z,276
2017-11-22T07:45:40.504Z,284
2017-11-22T07:46:40.532Z,284
2017-11-22T07:47:40.533Z,272
2017-11-22T07:48:40.823Z,280
2017-11-22T07:49:40.854Z,304
2017-11-22T07:50:40.870Z,356
2017-11-22T07:51:40.596Z,376
2017-11-22T07:52:40.885Z,400
2017-11-22T07:53:40.901Z,388
2017-11-22T07:54:40.922Z,372
2017-11-22T07:55:40.649Z,352
2017-11-22T07:56:40.941Z,352
2017-11-22T07:57:40.684Z,384
2017-11-22T07:58:40.437Z,444
2017-11-22T07:59:40.988Z,456
2017-11-22T08:00:40.732Z,484
2017-11-22T08:01:41.016Z,464
2017-11-22T08:02:41.045Z,368
2017-11-22T08:03:41.032Z,348
2017-11-22T08:04:40.777Z,356
2017-11-22T08:05:41.070Z,336
2017-11-22T08:06:41.084Z,276
2017-11-22T08:07:41.089Z,256
2017-11-22T08:08:41.111Z,256
2017-11-22T08:09:41.291Z,248
2017-11-22T08:10:40.602Z,252
2017-11-22T08:11:40.885Z,256
2017-11-22T08:12:40.904Z,272
2017-11-22T08:13:41.174Z,292
2017-11-22T08:14:40.928Z,284
2017-11-22T08:15:41.207Z,292
2017-11-22T08:16:40.695Z,292
2017-11-22T08:17:41.229Z,292
2017-11-22T08:18:41.268Z,276
2017-11-22T08:19:41.013Z,284
2017-11-22T08:20:41.294Z,244
2017-11-22T08:21:41.300Z,248
2017-11-22T08:22:41.358Z,244
2017-11-22T08:23:41.335Z,240
2017-11-22T08:24:41.061Z,236
2017-11-22T08:25:41.352Z,236
2017-11-22T08:26:41.367Z,240
2017-11-22T08:27:41.106Z,240
2017-11-22T08:28:41.389Z,240
2017-11-22T08:29:41.407Z,232
2017-11-22T08:30:41.259Z,224
2017-11-22T08:31:41.185Z,232
2017-11-22T08:32:41.173Z,248
2017-11-22T08:33:41.193Z,256
2017-11-22T08:34:41.222Z,256
2017-11-22T08:35:41.490Z,276
2017-11-22T08:36:41.518Z,264
2017-11-22T08:37:41.539Z,288
2017-11-22T08:38:40.994Z,288
2017-11-22T08:39:41.562Z,304
2017-11-22T08:40:41.564Z,312
2017-11-22T08:41:41.307Z,304
2017-11-22T08:42:41.595Z,340
2017-11-22T08:43:41.333Z,360
2017-11-22T08:44:41.626Z,348
2017-11-22T08:45:41.363Z,404
2017-11-22T08:46:41.653Z,412
2017-11-22T08:47:41.398Z,396
2017-11-22T08:48:41.151Z,416
2017-11-22T08:49:41.702Z,440
2017-11-22T08:50:41.729Z,432
2017-11-22T08:51:41.725Z,436
2017-11-22T08:52:41.740Z,372
2017-11-22T08:53:41.766Z,388
2017-11-22T08:54:41.507Z,392
2017-11-22T08:55:41.786Z,412
2017-11-22T08:56:41.793Z,472
2017-11-22T08:57:41.538Z,548
2017-11-22T08:58:41.559Z,568
2017-11-22T08:59:41.853Z,568
2017-11-22T09:00:41.850Z,668
2017-11-22T09:01:41.870Z,748
2017-11-22T09:02:41.344Z,752
2017-11-22T09:03:41.354Z,744
2017-11-22T09:04:41.633Z,684
2017-11-22T09:05:41.661Z,636
2017-11-22T09:06:41.944Z,612
2017-11-22T09:07:41.958Z,584
2017-11-22T09:08:41.973Z,564
2017-11-22T09:09:41.719Z,556
2017-11-22T09:10:41.995Z,552
2017-11-22T09:11:42.013Z,552
2017-11-22T09:12:42.027Z,568
2017-11-22T09:13:42.042Z,572
2017-11-22T09:14:42.047Z,588
2017-11-22T09:15:42.075Z,620
2017-11-22T09:16:42.089Z,640
2017-11-22T09:17:42.143Z,624
2017-11-22T09:18:42.115Z,600
2017-11-22T09:19:42.126Z,616
2017-11-22T09:20:42.142Z,620
2017-11-22T09:21:42.157Z,672
2017-11-22T09:22:42.189Z,736
2017-11-22T09:23:41.922Z,752
2017-11-22T09:24:41.656Z,784
2017-11-22T09:25:42.226Z,772
2017-11-22T09:26:42.232Z,776
2017-11-22T09:27:42.237Z,684
2017-11-22T09:28:42.317Z,660
2017-11-22T09:29:42.323Z,664
2017-11-22T09:30:42.025Z,624
2017-11-22T09:31:42.317Z,584
2017-11-22T09:32:42.320Z,528
2017-11-22T09:33:42.071Z,480
2017-11-22T09:34:42.348Z,468
2017-11-22T09:35:42.367Z,460
2017-11-22T09:36:42.121Z,440
2017-11-22T09:37:42.412Z,428
2017-11-22T09:38:42.142Z,436
2017-11-22T09:39:42.412Z,444
2017-11-22T09:40:42.430Z,492
2017-11-22T09:41:41.913Z,444
2017-11-22T09:42:42.196Z,520
2017-11-22T09:43:42.495Z,600
2017-11-22T09:44:42.505Z,712
2017-11-22T09:45:42.510Z,704
2017-11-22T09:46:42.525Z,832
2017-11-22T09:47:42.299Z,876
2017-11-22T09:48:42.555Z,920
2017-11-22T09:49:42.322Z,976
2017-11-22T09:50:42.588Z,976
2017-11-22T09:51:42.608Z,916
2017-11-22T09:52:42.335Z,872
2017-11-22T09:53:42.358Z,908
2017-11-22T09:54:42.641Z,884
2017-11-22T09:55:42.662Z,848
2017-11-22T09:56:42.670Z,860
2017-11-22T09:57:42.688Z,892
2017-11-22T09:58:42.154Z,904
2017-11-22T09:59:42.442Z,976
2017-11-22T10:00:42.749Z,932
2017-11-22T10:01:42.750Z,1004
2017-11-22T10:02:42.799Z,988
2017-11-22T10:03:42.785Z,932
2017-11-22T10:04:42.787Z,908
2017-11-22T10:05:42.814Z,856
2017-11-22T10:06:42.837Z,848
2017-11-22T10:07:42.832Z,892
2017-11-22T10:08:42.881Z,1012
2017-11-22T10:09:42.602Z,1128
2017-11-22T10:10:42.621Z,1252
2017-11-22T10:11:42.895Z,1320
2017-11-22T10:12:42.945Z,1268
2017-11-22T10:13:42.923Z,1240
2017-11-22T10:14:42.937Z,1200
2017-11-22T10:15:42.702Z,1148
2017-11-22T10:16:42.701Z,1128
2017-11-22T10:17:42.991Z,1044
2017-11-22T10:18:42.720Z,1020
2017-11-22T10:19:43.030Z,984
2017-11-22T10:20:42.761Z,1004
2017-11-22T10:21:42.780Z,980
2017-11-22T10:22:43.059Z,1012
2017-11-22T10:23:43.090Z,1024
2017-11-22T10:24:43.092Z,956
2017-11-22T10:25:43.105Z,892
2017-11-22T10:26:42.850Z,864
2017-11-22T10:27:42.880Z,912
2017-11-22T10:28:42.612Z,880
2017-11-22T10:29:42.638Z,920
2017-11-22T10:30:42.906Z,932
2017-11-22T10:31:43.194Z,952
2017-11-22T10:32:43.218Z,964
2017-11-22T10:33:43.224Z,984
2017-11-22T10:34:42.701Z,1028
2017-11-22T10:35:42.992Z,1048
2017-11-22T10:36:42.732Z,1012
2017-11-22T10:37:43.014Z,968
2017-11-22T10:38:42.760Z,924
2017-11-22T10:39:43.044Z,936
2017-11-22T10:40:42.784Z,964
2017-11-22T10:41:43.078Z,944
2017-11-22T10:42:43.088Z,972
2017-11-22T10:43:43.374Z,1052
2017-11-22T10:44:43.407Z,1096
2017-11-22T10:45:43.412Z,1156
2017-11-22T10:46:42.881Z,1176
2017-11-22T10:47:43.444Z,1188
2017-11-22T10:48:43.501Z,1172
2017-11-22T10:49:43.195Z,1124
2017-11-22T10:50:43.505Z,1064
2017-11-22T10:51:43.497Z,1052
2017-11-22T10:52:43.512Z,1104
2017-11-22T10:53:43.251Z,1208
2017-11-22T10:54:43.539Z,1252
2017-11-22T10:55:43.017Z,1312
2017-11-22T10:56:43.567Z,1196
2017-11-22T10:57:43.312Z,1072
2017-11-22T10:58:43.067Z,1040
2017-11-22T10:59:43.351Z,964
2017-11-22T11:00:43.637Z,984
2017-11-22T11:01:43.652Z,1104
2017-11-22T11:02:43.385Z,1188
2017-11-22T11:03:43.679Z,1188
2017-11-22T11:04:43.417Z,1132
2017-11-22T11:05:43.165Z,1112
2017-11-22T11:06:43.451Z,1132
2017-11-22T11:07:43.761Z,1076
2017-11-22T11:08:43.762Z,1116
2017-11-22T11:09:43.768Z,1228
2017-11-22T11:10:43.513Z,1208
2017-11-22T11:11:43.529Z,1216
2017-11-22T11:12:43.809Z,1196
2017-11-22T11:13:43.562Z,1240
2017-11-22T11:14:43.589Z,1284
2017-11-22T11:15:43.315Z,1264
2017-11-22T11:16:43.889Z,1228
2017-11-22T11:17:43.621Z,1188
2017-11-22T11:18:43.373Z,1132
2017-11-22T11:19:43.650Z,1100
2017-11-22T11:20:43.685Z,1104
2017-11-22T11:21:43.956Z,1188
2017-11-22T11:22:43.987Z,1208
2017-11-22T11:23:43.982Z,1232
2017-11-22T11:24:44.001Z,1208
2017-11-22T11:25:43.745Z,1248
2017-11-22T11:26:43.491Z,1248
2017-11-22T11:27:43.778Z,1172
2017-11-22T11:28:44.064Z,1124
2017-11-22T11:29:43.539Z,1096
2017-11-22T11:30:43.825Z,1076
2017-11-22T11:31:44.105Z,1032
2017-11-22T11:32:43.851Z,1044
2017-11-22T11:33:43.863Z,1072
2017-11-22T11:34:43.910Z,1028
2017-11-22T11:35:43.902Z,1024
2017-11-22T11:36:44.196Z,1060
2017-11-22T11:37:44.205Z,1112
2017-11-22T11:38:44.215Z,1164
2017-11-22T11:39:43.962Z,1204
2017-11-22T11:40:44.304Z,1232
2017-11-22T11:41:44.270Z,1256
2017-11-22T11:42:44.004Z,1196
2017-11-22T11:43:44.306Z,1120
2017-11-22T11:44:44.321Z,1056
2017-11-22T11:45:44.051Z,1008
2017-11-22T11:46:44.077Z,952
2017-11-22T11:47:44.373Z,928
2017-11-22T11:48:44.389Z,944
2017-11-22T11:49:44.395Z,944
2017-11-22T11:50:44.406Z,940
2017-11-22T11:51:44.153Z,952
2017-11-22T11:52:44.447Z,920
2017-11-22T11:53:44.460Z,892
2017-11-22T11:54:44.474Z,856
2017-11-22T11:55:44.481Z,836
2017-11-22T11:56:44.238Z,820
2017-11-22T11:57:44.242Z,804
2017-11-22T11:58:44.538Z,780
2017-11-22T11:59:44.290Z,752
2017-11-22T12:00:44.290Z,736
2017-11-22T12:01:44.307Z,724
2017-11-22T12:02:44.604Z,716
2017-11-22T12:03:44.608Z,712
2017-11-22T12:04:44.640Z,716
2017-11-22T12:05:44.097Z,720
2017-11-22T12:06:44.438Z,728
2017-11-22T12:07:44.399Z,736
2017-11-22T12:08:44.689Z,736
2017-11-22T12:09:44.426Z,720
2017-11-22T12:10:44.449Z,720
2017-11-22T12:11:44.732Z,728
2017-11-22T12:12:44.485Z,748
2017-11-22T12:13:44.767Z,752
2017-11-22T12:14:44.515Z,736
2017-11-22T12:15:44.525Z,756
2017-11-22T12:16:44.551Z,784
2017-11-22T12:17:44.828Z,820
2017-11-22T12:18:44.853Z,840
2017-11-22T12:19:44.860Z,840
2017-11-22T12:20:44.880Z,824
2017-11-22T12:21:44.909Z,824
2017-11-22T12:22:44.908Z,828
2017-11-22T12:23:44.981Z,836
2017-11-22T12:24:44.672Z,844
2017-11-22T12:25:44.954Z,844
2017-11-22T12:26:44.454Z,844
2017-11-22T12:27:44.728Z,844
2017-11-22T12:28:45.016Z,840
2017-11-22T12:29:44.479Z,836
2017-11-22T12:30:44.509Z,836
2017-11-22T12:31:45.048Z,832
2017-11-22T12:32:44.530Z,828
2017-11-22T12:33:44.812Z,820
2017-11-22T12:34:45.104Z,804
2017-11-22T12:35:44.852Z,784
2017-11-22T12:36:45.129Z,764
2017-11-22T12:37:45.158Z,756
2017-11-22T12:38:44.625Z,756
2017-11-22T12:39:45.184Z,752
2017-11-22T12:40:45.203Z,760
2017-11-22T12:41:45.212Z,760
2017-11-22T12:42:45.234Z,760
2017-11-22T12:43:44.992Z,760
2017-11-22T12:44:45.018Z,760
2017-11-22T12:45:45.285Z,760
2017-11-22T12:46:45.030Z,760
2017-11-22T12:47:44.764Z,764
2017-11-22T12:48:45.324Z,772
2017-11-22T12:49:45.077Z,780
2017-11-22T12:50:45.081Z,788
2017-11-22T12:51:44.830Z,792
2017-11-22T12:52:45.386Z,796
2017-11-22T12:53:45.398Z,792
2017-11-22T12:54:45.154Z,796
2017-11-22T12:55:45.432Z,800
2017-11-22T12:56:45.193Z,804
2017-11-22T12:57:45.489Z,808
2017-11-22T12:58:45.490Z,812
2017-11-22T12:59:45.234Z,820
2017-11-22T13:00:44.702Z,828
2017-11-22T13:01:45.537Z,824
2017-11-22T13:02:45.002Z,820
2017-11-22T13:03:45.298Z,812
2017-11-22T13:04:45.302Z,812
2017-11-22T13:05:45.328Z,808
2017-11-22T13:06:45.606Z,800
2017-11-22T13:07:45.359Z,792
2017-11-22T13:08:45.379Z,776
2017-11-22T13:09:45.660Z,760
2017-11-22T13:10:45.401Z,752
2017-11-22T13:11:45.692Z,744
2017-11-22T13:12:45.711Z,736
2017-11-22T13:13:45.736Z,728
2017-11-22T13:14:45.210Z,712
2017-11-22T13:15:45.762Z,692
2017-11-22T13:16:45.522Z,676
2017-11-22T13:17:45.798Z,664
2017-11-22T13:18:45.821Z,652
2017-11-22T13:19:45.551Z,644
2017-11-22T13:20:45.592Z,632
2017-11-22T13:21:45.307Z,620
2017-11-22T13:22:45.860Z,608
2017-11-22T13:23:45.626Z,604
2017-11-22T13:24:45.641Z,596
2017-11-22T13:25:45.942Z,588
2017-11-22T13:26:45.950Z,584
2017-11-22T13:27:45.969Z,576
2017-11-22T13:28:45.686Z,576
2017-11-22T13:29:45.438Z,568
2017-11-22T13:30:45.739Z,556
2017-11-22T13:31:45.750Z,552
2017-11-22T13:32:46.025Z,548
2017-11-22T13:33:45.790Z,548
2017-11-22T13:34:45.797Z,540
2017-11-22T13:35:46.077Z,536
2017-11-22T13:36:46.095Z,528
2017-11-22T13:37:45.847Z,524
2017-11-22T13:38:45.583Z,516
2017-11-22T13:39:45.865Z,512
2017-11-22T13:40:46.156Z,508
2017-11-22T13:41:45.906Z,500
2017-11-22T13:42:45.931Z,484
2017-11-22T13:43:46.216Z,476
2017-11-22T13:44:45.674Z,460
2017-11-22T13:45:46.235Z,448
2017-11-22T13:46:46.244Z,432
2017-11-22T13:47:46.295Z,420
2017-11-22T13:48:46.019Z,412
2017-11-22T13:49:46.025Z,408
2017-11-22T13:50:46.320Z,400
2017-11-22T13:51:46.329Z,400
2017-11-22T13:52:46.079Z,396
2017-11-22T13:53:46.364Z,396
2017-11-22T13:54:46.383Z,400
2017-11-22T13:55:46.134Z,404
2017-11-22T13:56:46.411Z,416
2017-11-22T13:57:46.157Z,428
2017-11-22T13:58:46.478Z,436
2017-11-22T13:59:46.192Z,448
2017-11-22T14:00:46.469Z,456
2017-11-22T14:01:46.216Z,460
2017-11-22T14:02:46.241Z,464
2017-11-22T14:03:46.259Z,468
2017-11-22T14:04:46.546Z,476
2017-11-22T14:05:46.297Z,472
2017-11-22T14:06:46.304Z,484
2017-11-22T14:07:46.322Z,492
2017-11-22T14:08:46.613Z,484
2017-11-22T14:09:46.632Z,476
2017-11-22T14:10:46.647Z,468
2017-11-22T14:11:46.380Z,460